createdAt,value
2022-08-07T00:15:22.922Z,44.26
2022-08-07T00:45:22.933Z,44.78
2022-08-07T01:15:22.937Z,45.34
2022-08-07T01:45:23.189Z,45.92
2022-08-07T02:15:22.967Z,46.46
2022-08-07T02:45:58.127Z,47.04
2022-08-07T03:15:30.406Z,47.75
2022-08-07T03:45:30.842Z,48.42
2022-08-07T04:15:23.848Z,49
2022-08-07T04:45:22.955Z,49.52
2022-08-07T05:15:24.014Z,49.97
2022-08-07T05:45:28.056Z,50.19
2022-08-07T06:15:22.966Z,50.16
2022-08-07T06:45:22.971Z,49.89
2022-08-07T07:15:23.961Z,49.57
2022-08-07T07:46:35.398Z,49.31
2022-08-07T08:15:23.278Z,48.9
2022-08-07T08:45:26.881Z,48.36
2022-08-07T09:16:25.455Z,47.76
2022-08-07T09:47:25.583Z,46.99
2022-08-07T10:15:23.049Z,46.14
2022-08-07T10:45:43.994Z,45.5
2022-08-07T11:15:26.265Z,44.33
2022-08-07T11:45:23.711Z,43.5
2022-08-07T12:15:57.963Z,42.08
2022-08-07T12:45:23.035Z,40.65
2022-08-07T13:15:23.480Z,38.57
2022-08-07T13:46:11.978Z,36.3
2022-08-07T14:15:23.855Z,37.39
2022-08-07T14:45:23.060Z,37.13
2022-08-07T15:15:23.050Z,36.55
2022-08-07T15:45:23.062Z,35.33
2022-08-07T16:15:55.191Z,35.26
2022-08-07T16:46:47.620Z,34.21
2022-08-07T17:15:28.832Z,34.16
2022-08-07T17:45:23.565Z,34.8
2022-08-07T18:15:23.090Z,35.23
2022-08-07T18:45:43.180Z,35.92
2022-08-07T19:16:05.270Z,36.71
2022-08-07T19:46:06.053Z,37.65
2022-08-07T20:15:23.134Z,38.35
2022-08-07T20:45:33.022Z,38.96
2022-08-07T21:15:23.126Z,39.61
2022-08-07T21:46:09.386Z,40.34
2022-08-07T22:16:44.187Z,40.99
2022-08-07T22:46:04.557Z,41.81
2022-08-07T23:16:06.913Z,42.66
2022-08-07T23:45:33.167Z,43.51
